Time;durP1;ratioP1;P1;durP2;ratioP2;P2;SDS_P1;SDS_P2;PMS_P1;PMS_P2;Temp;Humidity;BMP_temperature;BMP_pressure;BME280_temperature;BME280_humidity;BME280_pressure;Samples;Min_cycle;Max_cycle;Signal;HPM_P1;HPM_P2
2022/01/07 00:00:30;;;;;;;0.77;0.60;;;;;;;4.42;87.28;99904.34;6213658;23;20020;-76
2022/01/07 00:02:57;;;;;;;2.80;0.85;;;;;;;4.42;86.78;99905.16;6187009;23;20440;-75
2022/01/07 00:05:24;;;;;;;2.35;0.32;;;;;;;4.48;87.43;99919.63;6209718;23;20008;-75
2022/01/07 00:07:50;;;;;;;1.55;0.55;;;;;;;4.44;86.69;99915.75;6212255;23;20008;-75
2022/01/07 00:10:18;;;;;;;4.45;0.40;;;;;;;4.45;86.94;99909.28;6209679;23;20342;-74
2022/01/07 00:12:44;;;;;;;6.78;1.13;;;;;;;4.49;87.11;99913.16;6214574;23;20001;-74
2022/01/07 00:15:10;;;;;;;5.97;0.90;;;;;;;4.50;86.55;99906.69;6184437;23;20013;-75
2022/01/07 00:17:35;;;;;;;8.95;1.42;;;;;;;4.52;87.39;99912.69;6187011;23;20013;-75
2022/01/07 00:20:04;;;;;;;14.85;2.10;;;;;;;4.51;86.74;99908.31;6213462;23;20324;-74
2022/01/07 00:22:30;;;;;;;7.57;0.95;;;;;;;4.58;87.03;99909.00;6211251;23;20040;-75
2022/01/07 00:24:55;;;;;;;5.32;0.60;;;;;;;4.56;87.16;99894.91;6210082;23;20040;-75
2022/01/07 00:27:21;;;;;;;8.27;1.17;;;;;;;4.54;87.31;99902.41;6211444;23;20126;-74
2022/01/07 00:29:46;;;;;;;6.38;0.90;;;;;;;4.55;87.16;99907.59;6212809;23;20084;-74
2022/01/07 00:32:11;;;;;;;3.67;1.20;;;;;;;4.55;87.23;99904.06;6211550;23;20363;-75
2022/01/07 00:34:37;;;;;;;5.68;0.95;;;;;;;4.55;86.75;99909.50;6211647;23;20016;-74
2022/01/07 00:37:03;;;;;;;6.35;1.42;;;;;;;4.51;86.55;99913.72;6210288;23;20012;-75
2022/01/07 00:39:28;;;;;;;8.95;1.80;;;;;;;4.44;86.50;99907.63;6186066;23;20036;-75
2022/01/07 00:41:54;;;;;;;1.67;0.30;;;;;;;4.42;86.34;99899.75;6211381;23;20443;-75
2022/01/07 00:44:19;;;;;;;4.78;0.88;;;;;;;4.45;86.12;99909.28;6212169;23;20039;-75
2022/01/07 00:46:45;;;;;;;2.28;0.80;;;;;;;4.42;86.28;99904.34;6211403;23;20009;-75
2022/01/07 00:49:11;;;;;;;12.52;1.50;;;;;;;4.38;86.31;99904.00;6211228;23;20084;-75
2022/01/07 00:51:51;;;;;;;2.97;0.98;;;;;;;4.32;86.77;99900.38;6212302;23;20000;-74
2022/01/07 00:54:17;;;;;;;6.80;0.82;;;;;;;4.26;86.50;99885.06;6211179;23;20335;-76
2022/01/07 00:56:46;;;;;;;11.45;1.95;;;;;;;4.19;87.08;99878.94;6213743;23;20004;-73
2022/01/07 00:59:12;;;;;;;6.57;1.00;;;;;;;4.26;86.82;99889.66;6228617;23;20004;-71
2022/01/07 01:01:37;;;;;;;8.38;1.17;;;;;;;4.29;87.64;99895.44;6217161;23;20005;-74
2022/01/07 01:04:06;;;;;;;9.88;1.25;;;;;;;4.41;87.64;99916.22;6211279;23;20021;-75
2022/01/07 01:06:33;;;;;;;10.50;1.38;;;;;;;4.42;87.59;99902.44;6208911;23;20431;-75
2022/01/07 01:09:01;;;;;;;9.43;1.55;;;;;;;4.48;87.67;99901.53;6212078;23;20016;-74
2022/01/07 01:11:26;;;;;;;6.00;1.15;;;;;;;4.58;87.75;99898.19;6208706;23;20001;-73
2022/01/07 01:13:52;;;;;;;3.30;0.90;;;;;;;4.51;86.67;99905.59;6208459;23;20610;-74
2022/01/07 01:16:17;;;;;;;14.73;1.90;;;;;;;4.49;86.68;99910.44;6208158;23;20009;-74
2022/01/07 01:18:43;;;;;;;6.78;1.25;;;;;;;4.54;86.71;99907.84;6209209;23;20010;-75
2022/01/07 01:21:08;;;;;;;11.60;1.48;;;;;;;4.57;86.73;99907.38;6183502;23;20004;-75
2022/01/07 01:23:34;;;;;;;9.25;2.17;;;;;;;4.57;86.60;99910.09;6183662;23;20016;-76
2022/01/07 01:25:59;;;;;;;8.98;1.08;;;;;;;4.60;86.02;99903.34;6209185;23;20027;-76
2022/01/07 01:28:25;;;;;;;9.00;1.42;;;;;;;4.57;85.65;99901.97;6209434;23;20027;-73
2022/01/07 01:30:51;;;;;;;11.38;1.27;;;;;;;4.59;86.25;99909.84;6209317;23;20023;-75
2022/01/07 01:33:18;;;;;;;7.45;1.40;;;;;;;4.53;86.08;99901.59;6209615;23;20067;-75
2022/01/07 01:35:43;;;;;;;14.27;1.17;;;;;;;4.46;85.04;99910.94;6185628;23;20045;-74
2022/01/07 01:38:09;;;;;;;6.45;1.13;;;;;;;4.44;85.57;99907.63;6211186;23;20004;-75
2022/01/07 01:40:35;;;;;;;4.65;1.33;;;;;;;4.30;85.40;99894.34;6211271;23;20323;-74
2022/01/07 01:43:01;;;;;;;4.03;0.65;;;;;;;4.39;85.13;99910.25;6211604;23;20014;-75
2022/01/07 01:45:27;;;;;;;4.28;1.08;;;;;;;4.31;85.70;99909.53;6209657;23;20015;-75
2022/01/07 01:47:54;;;;;;;3.28;1.10;;;;;;;4.35;85.93;99910.72;6210722;23;20146;-75
2022/01/07 01:50:20;;;;;;;3.80;0.52;;;;;;;4.34;85.64;99913.66;6209323;23;20462;-74
2022/01/07 01:52:54;;;;;;;5.15;1.08;;;;;;;4.34;84.90;99919.88;6210679;23;20011;-76
2022/01/07 01:55:23;;;;;;;10.13;0.68;;;;;;;4.35;85.79;99910.72;6208346;23;20043;-74
2022/01/07 01:57:50;;;;;;;6.10;0.88;;;;;;;4.31;85.58;99909.53;6207795;23;20008;-75
2022/01/07 02:00:17;;;;;;;10.02;1.17;;;;;;;4.27;85.23;99911.06;6207903;23;20071;-72
2022/01/07 02:02:43;;;;;;;11.82;0.93;;;;;;;4.20;85.42;99907.66;6208947;23;20071;-74
2022/01/07 02:05:09;;;;;;;2.08;0.40;;;;;;;4.25;85.16;99913.19;6207510;23;20004;-73
2022/01/07 02:07:37;;;;;;;13.20;1.05;;;;;;;4.15;85.06;99904.84;6207170;23;20016;-74
2022/01/07 02:10:08;;;;;;;10.07;1.13;;;;;;;4.28;84.39;99910.00;6184441;23;20424;-74
2022/01/07 02:12:33;;;;;;;4.47;1.10;;;;;;;4.27;84.68;99916.47;6210475;23;20004;-73
2022/01/07 02:14:59;;;;;;;2.85;0.47;;;;;;;4.36;83.60;99912.34;6206622;23;20060;-73
2022/01/07 02:17:26;;;;;;;7.32;0.73;;;;;;;4.35;83.69;99921.53;6178248;23;20082;-73
2022/01/07 02:19:54;;;;;;;5.32;0.73;;;;;;;4.29;83.34;99900.84;6208611;23;20004;-72
2022/01/07 02:22:20;;;;;;;3.15;0.50;;;;;;;4.23;83.08;99900.97;6183635;23;20092;-73
2022/01/07 02:24:59;;;;;;;3.83;0.35;;;;;;;4.27;82.63;99897.53;6210254;23;20004;-74
2022/01/07 02:27:24;;;;;;;8.35;0.82;;;;;;;4.24;82.54;99902.63;6212392;23;20450;-76
2022/01/07 02:29:51;;;;;;;4.22;0.30;;;;;;;4.16;82.40;99901.06;6213164;23;20004;-72
2022/01/07 02:32:17;;;;;;;2.72;0.38;;;;;;;4.08;82.41;99904.16;6213155;23;20008;-72
2022/01/07 02:34:44;;;;;;;6.60;0.43;;;;;;;4.05;82.09;99904.63;6213656;23;20005;-72
2022/01/07 02:37:11;;;;;;;2.45;0.55;;;;;;;3.98;81.97;99908.25;6212492;23;20030;-72
2022/01/07 02:39:36;;;;;;;1.63;0.52;;;;;;;3.87;82.54;99892.84;6213753;23;20336;-72
2022/01/07 02:42:03;;;;;;;0.68;0.32;;;;;;;3.84;82.68;99893.31;6211310;23;20009;-72
2022/01/07 02:44:28;;;;;;;0.73;0.43;;;;;;;3.85;82.77;99892.25;6213203;23;20075;-72
2022/01/07 02:46:56;;;;;;;3.67;0.43;;;;;;;3.67;82.03;99885.88;6213388;23;20111;-73
2022/01/07 02:49:22;;;;;;;5.95;0.68;;;;;;;3.74;82.46;99899.31;6212312;23;20035;-72
2022/01/07 02:51:47;;;;;;;1.63;0.30;;;;;;;3.61;82.50;99881.41;6212535;23;20005;-72
2022/01/07 02:54:13;;;;;;;6.32;0.50;;;;;;;3.67;82.27;99899.41;6212673;23;20462;-72
2022/01/07 02:56:42;;;;;;;2.38;0.63;;;;;;;3.55;82.05;99885.06;6212251;23;20482;-76
2022/01/07 02:59:09;;;;;;;2.10;0.30;;;;;;;3.62;82.26;99893.91;6213630;23;20040;-75
2022/01/07 03:01:36;;;;;;;0.63;0.30;;;;;;;3.63;82.14;99890.13;6210992;23;20008;-75
2022/01/07 03:04:02;;;;;;;2.58;0.52;;;;;;;3.67;81.74;99887.78;6212063;23;20024;-72
2022/01/07 03:06:30;;;;;;;0.47;0.20;;;;;;;3.75;81.73;99905.53;6216321;23;20005;-71
2022/01/07 03:08:56;;;;;;;1.80;0.50;;;;;;;3.77;80.57;99889.91;6213975;23;20043;-73
2022/01/07 03:11:22;;;;;;;1.25;0.22;;;;;;;3.75;80.79;99894.72;6213453;23;20012;-70
2022/01/07 03:13:48;;;;;;;3.45;0.55;;;;;;;3.79;80.85;99907.53;6214754;23;20487;-71
2022/01/07 03:16:14;;;;;;;1.63;0.28;;;;;;;3.74;80.42;99914.69;6213732;23;20462;-71
2022/01/07 03:18:39;;;;;;;1.13;0.20;;;;;;;3.76;79.94;99932.34;6213946;23;20005;-70
2022/01/07 03:21:04;;;;;;;2.42;0.57;;;;;;;3.81;80.07;99920.81;6213294;23;20011;-72
2022/01/07 03:23:31;;;;;;;1.95;0.40;;;;;;;3.90;81.34;99935.66;6216761;23;20011;-72
2022/01/07 03:25:58;;;;;;;1.50;0.43;;;;;;;3.69;82.74;99963.25;6215640;23;20004;-72
2022/01/07 03:28:23;;;;;;;0.82;0.40;;;;;;;3.55;83.83;99916.66;6217078;23;20000;-72
2022/01/07 03:30:49;;;;;;;3.20;0.45;;;;;;;3.41;84.21;99872.81;6216443;23;20007;-72
2022/01/07 03:33:15;;;;;;;2.97;0.30;;;;;;;3.31;85.09;99887.72;6216075;23;20005;-72
2022/01/07 03:35:42;;;;;;;0.65;0.25;;;;;;;3.25;84.71;99864.31;6214675;23;20016;-72
2022/01/07 03:38:08;;;;;;;1.88;0.20;;;;;;;3.12;84.83;99878.84;6213724;23;20099;-72
2022/01/07 03:40:34;;;;;;;1.02;0.50;;;;;;;3.07;84.95;99888.72;6216331;23;20687;-71
2022/01/07 03:43:01;;;;;;;4.47;0.55;;;;;;;2.94;84.92;99887.81;6215316;23;20028;-71
2022/01/07 03:45:26;;;;;;;1.02;0.45;;;;;;;2.86;85.37;99881.91;6213986;23;20023;-73
2022/01/07 03:47:53;;;;;;;5.63;0.40;;;;;;;2.89;85.92;99881.44;6212831;23;20079;-73
2022/01/07 03:50:22;;;;;;;9.30;0.40;;;;;;;2.84;85.63;99887.53;6213418;23;20032;-73
2022/01/07 03:52:48;;;;;;;0.73;0.10;;;;;;;2.74;86.35;99866.47;6214383;23;20001;-73
2022/01/07 03:55:17;;;;;;;9.25;0.65;;;;;;;2.73;86.62;99874.81;6213088;23;20012;-74
2022/01/07 03:57:42;;;;;;;8.68;0.45;;;;;;;2.73;86.85;99861.31;6212037;23;20005;-74
2022/01/07 04:00:12;;;;;;;2.00;0.38;;;;;;;2.79;86.52;99860.41;6213871;23;20009;-73
2022/01/07 04:02:38;;;;;;;0.38;0.20;;;;;;;2.88;86.16;99856.34;6210214;23;20013;-73
2022/01/07 04:05:04;;;;;;;0.15;0.10;;;;;;;2.91;86.37;99841.56;6211760;23;20035;-72
2022/01/07 04:07:30;;;;;;;0.32;0.20;;;;;;;2.91;85.93;99831.56;6214601;23;20471;-74
2022/01/07 04:09:59;;;;;;;1.67;0.22;;;;;;;2.92;86.03;99833.22;6216507;23;20390;-73
2022/01/07 04:12:26;;;;;;;2.28;0.30;;;;;;;2.88;85.81;99829.31;6214365;23;20005;-74
2022/01/07 04:15:02;;;;;;;1.73;0.35;;;;;;;2.81;85.48;99823.19;6188635;23;20071;-73
2022/01/07 04:17:28;;;;;;;1.15;0.30;;;;;;;2.80;85.78;99818.84;6214690;23;20438;-74
2022/01/07 04:19:53;;;;;;;2.28;0.40;;;;;;;2.79;85.57;99830.72;6213385;23;20019;-73
2022/01/07 04:22:19;;;;;;;0.77;0.20;;;;;;;2.76;85.65;99839.25;6211168;23;20008;-73
2022/01/07 04:24:44;;;;;;;5.00;1.00;;;;;;;2.76;85.68;99844.66;6213948;23;20005;-74
2022/01/07 04:27:10;;;;;;;0.20;0.10;;;;;;;2.73;85.46;99853.22;6213251;23;20019;-73
2022/01/07 04:29:35;;;;;;;0.77;0.10;;;;;;;2.66;85.10;99838.97;6213632;23;20012;-74
2022/01/07 04:32:02;;;;;;;0.65;0.17;;;;;;;2.67;85.25;99862.22;6215616;23;20080;-74
2022/01/07 04:34:28;;;;;;;0.47;0.22;;;;;;;2.63;85.55;99867.28;6216200;23;20008;-73
2022/01/07 04:36:53;;;;;;;2.63;0.25;;;;;;;2.67;85.42;99867.63;6214830;23;20031;-73
2022/01/07 04:39:19;;;;;;;3.30;0.35;;;;;;;2.63;85.42;99856.47;6213802;23;20016;-73
2022/01/07 04:41:44;;;;;;;0.70;0.28;;;;;;;2.68;85.60;99858.47;6189034;23;20008;-74
2022/01/07 04:44:12;;;;;;;0.68;0.28;;;;;;;2.66;85.51;99857.88;6214391;23;20031;-73
2022/01/07 04:46:38;;;;;;;1.73;0.20;;;;;;;2.60;85.38;99835.34;6214222;23;20087;-73
2022/01/07 04:49:03;;;;;;;3.13;0.30;;;;;;;2.66;85.38;99828.16;6213171;23;20008;-74
2022/01/07 04:51:29;;;;;;;0.47;0.30;;;;;;;2.64;85.74;99824.88;6214829;23;20009;-75
2022/01/07 04:53:55;;;;;;;2.25;0.20;;;;;;;2.61;85.97;99840.50;6213775;23;20424;-74
2022/01/07 04:56:20;;;;;;;2.50;0.20;;;;;;;2.66;85.57;99844.38;6214394;23;20007;-74
2022/01/07 04:58:46;;;;;;;1.67;0.13;;;;;;;2.68;85.61;99842.28;6217519;23;20028;-74
2022/01/07 05:01:12;;;;;;;6.03;0.50;;;;;;;2.68;85.58;99847.69;6198950;23;20019;-72
2022/01/07 05:03:37;;;;;;;2.00;0.40;;;;;;;2.70;85.56;99830.22;6185420;23;20103;-72
2022/01/07 05:06:44;;;;;;;7.03;0.30;;;;;;;2.68;86.40;99823.38;6215047;23;20430;-72
2022/01/07 05:08:48;;;;;;;4.65;0.30;;;;;;;2.76;86.04;99839.25;6213493;23;20036;-72
2022/01/07 05:11:14;;;;;;;3.05;0.13;;;;;;;2.70;86.02;99830.22;6212912;23;20058;-72
2022/01/07 05:13:39;;;;;;;1.17;0.17;;;;;;;2.72;85.60;99832.69;6215173;23;20009;-72
2022/01/07 05:16:05;;;;;;;3.55;0.32;;;;;;;2.79;85.60;99844.22;6213415;23;20031;-75
2022/01/07 05:18:31;;;;;;;2.22;0.40;;;;;;;2.80;85.76;99840.44;6184761;23;20016;-76
2022/01/07 05:20:56;;;;;;;3.10;0.20;;;;;;;2.85;85.58;99845.16;6185585;23;20316;-76
2022/01/07 05:23:22;;;;;;;5.22;0.30;;;;;;;2.85;85.47;99847.84;6213375;23;20009;-75
2022/01/07 05:25:47;;;;;;;1.67;0.50;;;;;;;2.81;85.10;99841.28;6210771;23;20450;-75
2022/01/07 05:28:14;;;;;;;5.35;0.40;;;;;;;2.72;85.41;99843.47;6214460;23;20743;-75
2022/01/07 05:30:39;;;;;;;3.72;0.40;;;;;;;2.69;85.16;99833.13;6213813;23;20004;-75
2022/01/07 05:33:05;;;;;;;3.92;0.43;;;;;;;2.71;85.34;99833.72;6213259;23;20312;-76
2022/01/07 05:35:30;;;;;;;0.95;0.32;;;;;;;2.75;85.03;99829.50;6213873;23;20015;-76
2022/01/07 05:37:56;;;;;;;2.90;0.25;;;;;;;2.81;84.32;99852.91;6238736;23;20056;-75
2022/01/07 05:40:22;;;;;;;0.70;0.43;;;;;;;2.79;84.16;99845.03;6212675;23;20020;-75
2022/01/07 05:42:47;;;;;;;1.77;0.47;;;;;;;2.84;84.04;99862.44;6207955;23;20032;-76
2022/01/07 05:45:13;;;;;;;9.85;0.47;;;;;;;2.83;84.41;99872.38;6212218;23;20008;-76
2022/01/07 05:47:38;;;;;;;1.00;0.73;;;;;;;2.85;83.94;99873.00;6212803;23;20079;-75
2022/01/07 05:50:04;;;;;;;5.53;0.30;;;;;;;2.90;83.97;99875.81;6211491;23;20009;-76
2022/01/07 05:52:30;;;;;;;5.30;0.40;;;;;;;2.81;83.93;99863.69;6185966;23;20009;-74
2022/01/07 05:54:55;;;;;;;0.28;0.20;;;;;;;2.91;83.10;99869.38;6214273;23;20419;-75
2022/01/07 05:57:21;;;;;;;3.03;0.52;;;;;;;2.88;83.11;99869.84;6213712;23;20640;-75
2022/01/07 05:59:46;;;;;;;3.92;0.38;;;;;;;2.91;82.89;99866.69;6213829;23;20083;-76
2022/01/07 06:02:12;;;;;;;3.78;0.40;;;;;;;2.93;82.88;99867.25;6211655;22;20009;-75
2022/01/07 06:04:37;;;;;;;0.40;0.13;;;;;;;2.89;82.67;99855.28;6217699;23;20070;-76
2022/01/07 06:07:03;;;;;;;1.75;0.30;;;;;;;2.88;83.20;99859.03;6243631;23;20434;-75
2022/01/07 06:09:29;;;;;;;0.20;0.10;;;;;;;2.89;82.98;99854.44;6190561;23;20027;-75
2022/01/07 06:11:57;;;;;;;1.73;0.32;;;;;;;2.86;82.93;99855.75;6243117;23;20032;-74
2022/01/07 06:14:23;;;;;;;4.53;0.57;;;;;;;2.89;82.58;99854.44;6242223;23;20079;-75
2022/01/07 06:16:48;;;;;;;6.07;0.40;;;;;;;2.96;82.89;99855.19;6191735;23;20091;-74
2022/01/07 06:19:14;;;;;;;3.85;0.57;;;;;;;2.96;82.44;99853.31;6242899;23;20625;-75
2022/01/07 06:21:39;;;;;;;11.00;0.95;;;;;;;2.95;82.47;99846.25;6191620;23;20058;-74
2022/01/07 06:24:05;;;;;;;9.93;2.15;;;;;;;2.98;82.24;99853.09;6242437;23;20385;-74
2022/01/07 06:26:31;;;;;;;4.57;0.40;;;;;;;2.96;82.27;99847.91;6215223;23;20393;-77
2022/01/07 06:28:57;;;;;;;1.45;0.22;;;;;;;2.92;82.52;99832.38;6193189;23;20031;-76
2022/01/07 06:31:32;;;;;;;4.38;0.80;;;;;;;2.93;82.17;99840.25;6216449;23;19996;-77
2022/01/07 06:33:58;;;;;;;5.57;0.50;;;;;;;3.03;82.08;99855.09;6217686;23;20011;-77
2022/01/07 06:36:27;;;;;;;6.15;0.77;;;;;;;3.05;81.94;99858.38;6192128;23;20032;-77
2022/01/07 06:38:58;;;;;;;7.50;0.90;;;;;;;2.95;82.05;99842.75;6241959;23;20000;-76
2022/01/07 06:41:24;;;;;;;6.00;0.73;;;;;;;2.92;81.87;99849.44;6193308;23;20702;-77
2022/01/07 06:43:49;;;;;;;6.75;1.00;;;;;;;2.97;81.23;99854.94;6218100;23;20032;-77
2022/01/07 06:46:15;;;;;;;7.40;0.57;;;;;;;2.89;81.86;99840.94;6194363;23;20011;-77
2022/01/07 06:48:58;;;;;;;;;;;;;;;;;;;;;
2022/01/07 06:51:24;;;;;;;4.07;0.73;;;;;;;2.89;81.27;99849.88;6245466;23;20048;-77
2022/01/07 06:53:51;;;;;;;13.20;0.88;;;;;;;2.85;80.90;99845.16;6195555;23;20015;-77
2022/01/07 06:56:19;;;;;;;2.58;0.90;;;;;;;2.86;81.59;99834.16;6256555;23;20027;-78
2022/01/07 06:58:50;;;;;;;8.00;0.82;;;;;;;2.84;81.67;99830.84;6236897;23;20004;-77
2022/01/07 07:01:20;;;;;;;2.17;0.93;;;;;;;2.99;81.60;99843.09;6267037;22;20015;-76
2022/01/07 07:03:46;;;;;;;6.75;0.82;;;;;;;2.88;81.38;99832.03;6241248;23;20042;-75
2022/01/07 07:06:12;;;;;;;4.82;0.82;;;;;;;2.96;81.57;99856.03;6245319;23;19992;-76
2022/01/07 07:08:38;;;;;;;3.47;0.93;;;;;;;2.95;81.52;99854.38;6270355;22;20015;-76
2022/01/07 07:11:04;;;;;;;3.30;0.95;;;;;;;3.01;81.23;99851.78;6237746;23;20000;-75
2022/01/07 07:13:29;;;;;;;1.42;0.90;;;;;;;3.14;80.91;99878.63;6253180;23;20004;-77
2022/01/07 07:15:55;;;;;;;8.43;0.60;;;;;;;3.12;81.32;99859.09;6245712;23;20399;-77
2022/01/07 07:18:21;;;;;;;2.15;0.57;;;;;;;3.19;80.98;99864.41;6217904;23;20004;-76
2022/01/07 07:20:49;;;;;;;3.05;0.57;;;;;;;3.34;81.06;99872.09;6166598;23;20005;-77
2022/01/07 07:23:14;;;;;;;3.78;0.82;;;;;;;3.48;80.85;99892.44;6216501;23;20449;-76
2022/01/07 07:25:39;;;;;;;1.55;0.60;;;;;;;3.52;80.19;99885.53;6241586;23;20040;-76
2022/01/07 07:28:05;;;;;;;6.10;0.80;;;;;;;3.54;80.38;99915.84;6192941;23;20475;-77
2022/01/07 07:30:37;;;;;;;20.10;1.08;;;;;;;3.38;82.71;99954.38;6190984;23;20008;-77
2022/01/07 07:33:29;;;;;;;3.33;0.43;;;;;;;3.25;83.95;99931.88;6216523;23;20017;-78
2022/01/07 07:38:38;;;;;;;3.13;0.47;;;;;;;3.12;85.41;99883.41;6242731;23;19961;-76
2022/01/07 07:41:11;;;;;;;3.72;0.50;;;;;;;3.12;85.51;99896.94;6218030;23;20000;-76
2022/01/07 07:43:37;;;;;;;2.15;0.32;;;;;;;2.85;85.89;99873.00;6217740;23;20099;-76
2022/01/07 07:46:04;;;;;;;8.48;0.40;;;;;;;2.85;86.64;99875.69;6216842;23;20003;-78
2022/01/07 07:48:33;;;;;;;3.50;0.50;;;;;;;2.93;86.44;99878.06;6190033;23;20023;-76
2022/01/07 07:51:01;;;;;;;8.38;1.08;;;;;;;2.86;86.66;99882.75;6216986;23;20067;-77
2022/01/07 07:53:27;;;;;;;0.93;0.22;;;;;;;2.86;86.42;99893.56;6217800;23;20012;-76
2022/01/07 07:55:55;;;;;;;5.57;0.80;;;;;;;2.87;86.53;99897.88;6244206;23;20008;-76
2022/01/07 07:58:27;;;;;;;7.60;0.73;;;;;;;2.91;87.02;99918.00;6218601;23;20017;-75
2022/01/07 08:00:53;;;;;;;5.07;0.85;;;;;;;2.83;86.80;99912.91;6217308;23;20008;-78
2022/01/07 08:03:23;;;;;;;5.72;0.45;;;;;;;3.01;86.83;99939.06;6216967;23;20036;-75
2022/01/07 08:05:51;;;;;;;1.42;0.43;;;;;;;2.92;87.36;99933.16;6217968;23;20000;-76
2022/01/07 08:08:17;;;;;;;1.67;0.28;;;;;;;2.97;87.40;99933.28;6243400;23;20015;-77
2022/01/07 08:10:49;;;;;;;5.45;0.47;;;;;;;3.06;87.08;99947.28;6190209;23;20008;-76
2022/01/07 08:16:51;;;;;;;;;;;;;;;;;;;;;
2022/01/07 08:19:16;;;;;;;2.60;0.32;;;;;;;3.08;86.67;99944.38;6090473;23;20093;-76
2022/01/07 08:21:44;;;;;;;5.60;0.60;;;;;;;2.97;86.97;99922.47;6066005;23;20045;-76
2022/01/07 08:24:10;;;;;;;7.03;0.70;;;;;;;3.06;86.43;99924.88;6157252;23;20004;-75
2022/01/07 08:26:38;;;;;;;4.15;0.43;;;;;;;3.03;86.60;99938.84;6191158;23;20016;-76
2022/01/07 08:29:11;;;;;;;3.45;0.40;;;;;;;2.99;86.62;99916.03;6216723;23;20031;-75
2022/01/07 08:36:52;;;;;;;11.43;0.73;;;;;;;2.90;86.25;99927.13;6218766;23;20019;-76
2022/01/07 08:39:17;;;;;;;0.60;0.35;;;;;;;2.70;86.25;99918.47;6214718;23;20008;-76
2022/01/07 08:41:43;;;;;;;1.00;0.20;;;;;;;2.68;85.96;99920.56;6214840;23;20502;-77
2022/01/07 08:44:10;;;;;;;0.88;0.30;;;;;;;2.59;86.14;99904.69;6215888;23;20350;-76
2022/01/07 08:46:36;;;;;;;0.88;0.20;;;;;;;2.52;85.78;99903.13;6216684;23;20004;-77
2022/01/07 08:49:04;;;;;;;4.82;0.45;;;;;;;2.43;86.04;99899.88;6232700;23;20054;-76
2022/01/07 08:51:30;;;;;;;3.70;0.50;;;;;;;2.38;86.04;99897.88;6212964;23;20032;-76
2022/01/07 08:53:58;;;;;;;1.98;0.32;;;;;;;2.37;86.04;99919.69;6215323;23;20375;-77
2022/01/07 08:56:24;;;;;;;0.13;0.10;;;;;;;2.32;86.10;99927.63;6217030;23;20004;-78
2022/01/07 08:58:51;;;;;;;2.83;0.52;;;;;;;2.18;86.46;99908.88;6241916;23;20004;-77
2022/01/07 09:01:20;;;;;;;0.88;0.10;;;;;;;2.18;86.43;99927.75;6217629;23;20043;-76
2022/01/07 09:03:45;;;;;;;2.53;0.40;;;;;;;2.08;86.04;99913.97;6210699;23;20298;-76
2022/01/07 09:06:11;;;;;;;2.47;0.30;;;;;;;2.12;85.96;99919.72;6211180;23;20032;-76
2022/01/07 09:08:39;;;;;;;2.75;0.25;;;;;;;2.20;86.47;99936.44;6209706;23;20108;-77
2022/01/07 09:11:04;;;;;;;2.05;0.40;;;;;;;2.16;86.51;99916.38;6187811;23;20015;-76
2022/01/07 09:13:30;;;;;;;5.03;0.20;;;;;;;2.25;86.54;99911.50;6211293;23;20009;-76
2022/01/07 09:15:58;;;;;;;0.10;0.10;;;;;;;2.35;86.33;99889.38;6211863;23;20138;-77
2022/01/07 09:18:24;;;;;;;2.35;0.38;;;;;;;2.43;86.32;99891.78;6210750;23;20730;-78
2022/01/07 09:20:57;;;;;;;0.47;0.35;;;;;;;2.42;86.54;99901.78;6211821;23;20489;-77
2022/01/07 09:23:22;;;;;;;0.47;0.45;;;;;;;2.56;85.99;99934.81;6214101;23;20000;-76
2022/01/07 09:25:53;;;;;;;0.20;0.20;;;;;;;2.58;86.08;99940.00;6209147;23;20277;-76
2022/01/07 09:28:28;;;;;;;5.93;0.20;;;;;;;2.58;86.36;99930.00;6186087;23;20008;-77
2022/01/07 09:31:21;;;;;;;4.10;0.22;;;;;;;2.79;85.95;99946.84;6187015;23;20012;-76
2022/01/07 09:34:30;;;;;;;1.15;0.15;;;;;;;2.85;85.85;99950.47;6214252;23;20039;-75
2022/01/07 09:36:56;;;;;;;5.45;0.20;;;;;;;2.97;85.58;99952.19;6211285;23;20008;-74
2022/01/07 09:39:21;;;;;;;1.35;0.40;;;;;;;3.03;85.99;99946.94;6207785;23;20044;-74
2022/01/07 09:41:47;;;;;;;0.98;0.15;;;;;;;3.29;86.25;99964.69;6209843;23;20036;-74
2022/01/07 09:44:13;;;;;;;3.63;0.55;;;;;;;3.82;85.68;99977.38;6211724;23;20123;-74
2022/01/07 09:46:43;;;;;;;1.00;0.30;;;;;;;4.46;83.93;99986.75;6210500;23;20009;-73
2022/01/07 09:49:09;;;;;;;0.93;0.13;;;;;;;5.08;81.56;99999.69;6212251;23;20015;-76
2022/01/07 09:51:41;;;;;;;0.52;0.30;;;;;;;5.14;78.94;100025.03;6211471;23;20331;-75
2022/01/07 09:54:08;;;;;;;1.27;0.40;;;;;;;4.88;79.35;100003.66;6207785;23;20008;-72
2022/01/07 09:56:34;;;;;;;1.23;0.30;;;;;;;4.65;79.16;99972.00;6207463;23;20012;-72
2022/01/07 09:59:07;;;;;;;0.35;0.20;;;;;;;4.47;80.24;99977.56;6186812;23;20431;-73
2022/01/07 10:01:54;;;;;;;3.10;0.40;;;;;;;4.76;80.88;100004.72;6210789;23;20009;-73
2022/01/07 10:04:32;;;;;;;2.63;0.60;;;;;;;5.12;78.76;100005.47;6239892;22;20030;-73
2022/01/07 10:07:17;;;;;;;2.83;0.90;;;;;;;5.40;78.12;99991.09;6242601;23;20458;-73
2022/01/07 10:10:07;;;;;;;7.43;0.40;;;;;;;5.39;76.75;99994.91;6214938;23;20000;-72
2022/01/07 10:12:48;;;;;;;1.60;0.30;;;;;;;5.25;76.93;99984.31;6244359;23;20000;-75
2022/01/07 10:15:16;;;;;;;0.75;0.20;;;;;;;5.14;78.46;99987.06;6217128;23;20015;-73
2022/01/07 10:18:00;;;;;;;0.82;0.40;;;;;;;5.16;77.75;99984.97;6245781;23;20031;-76
2022/01/07 10:20:31;;;;;;;1.48;0.20;;;;;;;5.18;77.79;99978.25;6226483;23;20091;-76
2022/01/07 10:23:09;;;;;;;6.53;0.70;;;;;;;5.31;77.26;99987.16;6231739;23;19996;-78
2022/01/07 10:25:54;;;;;;;5.30;0.47;;;;;;;5.14;76.65;99976.22;6252217;23;20000;-77
2022/01/07 10:28:21;;;;;;;;;;;;;;;5.27;75.44;99994.09;6261941;23;20024;-78
2022/01/07 10:30:48;;;;;;;2.03;0.28;;;;;;;5.31;75.78;99998.81;6209428;23;19912;-76
2022/01/07 10:33:34;;;;;;;0.70;0.30;;;;;;;5.27;74.03;99983.25;6230650;23;20008;-77
2022/01/07 10:36:06;;;;;;;1.83;0.43;;;;;;;5.24;74.43;100003.53;6220687;23;20331;-77
2022/01/07 10:38:33;;;;;;;1.75;0.30;;;;;;;5.39;73.88;100017.41;6244839;23;20000;-76
2022/01/07 10:40:59;;;;;;;0.73;0.30;;;;;;;5.63;73.26;100013.78;6217878;23;20035;-78
2022/01/07 10:43:36;;;;;;;0.85;0.50;;;;;;;5.55;72.82;100015.81;6193585;23;20014;-78
2022/01/07 10:46:11;;;;;;;3.05;0.57;;;;;;;5.49;73.83;100011.38;6242695;23;20014;-78
2022/01/07 10:48:53;;;;;;;1.13;0.70;;;;;;;5.18;73.47;100012.66;6222178;23;20008;-74
2022/01/07 10:51:28;;;;;;;1.20;0.40;;;;;;;5.17;73.97;100008.28;6217898;23;20003;-76
2022/01/07 10:53:57;;;;;;;3.15;0.43;;;;;;;5.04;73.35;100012.91;6241866;23;20004;-77
2022/01/07 10:56:35;;;;;;;1.27;0.22;;;;;;;4.92;72.09;100005.88;6213749;23;20641;-76
2022/01/07 10:59:11;;;;;;;5.07;0.75;;;;;;;4.99;72.14;100012.81;6244133;23;20085;-76
2022/01/07 11:01:38;;;;;;;6.07;0.43;;;;;;;5.01;72.62;100016.13;6245014;23;20093;-76
2022/01/07 11:04:07;;;;;;;4.30;0.73;;;;;;;4.93;72.01;99997.50;6216250;22;20020;-75
2022/01/07 11:06:34;;;;;;;6.05;0.88;;;;;;;4.78;74.04;99994.50;6238217;23;20000;-76
2022/01/07 11:09:09;;;;;;;2.63;0.57;;;;;;;4.55;75.89;99983.41;6242639;23;20008;-75
2022/01/07 11:11:44;;;;;;;5.07;0.30;;;;;;;4.32;76.80;99951.78;6218841;23;20366;-77
2022/01/07 11:17:50;;;;;;;4.30;0.90;;;;;;;4.68;76.78;99978.84;6175563;23;20000;-77
2022/01/07 11:20:23;;;;;;;0.80;0.60;;;;;;;4.89;77.45;99958.41;6248118;23;20015;-78
2022/01/07 11:23:29;;;;;;;10.63;0.68;;;;;;;5.61;76.71;99970.63;6249957;23;20103;-77
2022/01/07 11:26:20;;;;;;;;;;;;;;;;;;;;;
2022/01/07 11:29:15;;;;;;;9.60;0.52;;;;;;;6.93;71.52;99970.16;6245322;23;20530;-76
2022/01/07 11:31:40;;;;;;;0.73;0.32;;;;;;;7.31;70.07;99970.34;6187347;23;20070;-76
2022/01/07 11:34:18;;;;;;;1.85;0.63;;;;;;;7.50;68.57;99965.38;6192905;23;20430;-76
2022/01/07 11:36:44;;;;;;;1.48;0.40;;;;;;;7.80;67.56;99961.31;6218224;23;20011;-76
2022/01/07 11:46:59;;;;;;;;;;;;;;;;;;;;;
2022/01/07 11:49:36;;;;;;;0.68;0.57;;;;;;;6.90;65.43;99948.13;6250348;23;20098;-76
2022/01/07 11:52:34;;;;;;;1.98;0.70;;;;;;;6.76;66.50;99948.50;6238448;23;20020;-76
2022/01/07 11:55:21;;;;;;;2.47;0.45;;;;;;;6.63;67.59;99959.75;6247206;23;20000;-75
2022/01/07 11:57:59;;;;;;;1.60;0.38;;;;;;;6.33;67.01;99941.94;6254407;23;20008;-76
2022/01/07 12:01:00;;;;;;;4.05;0.63;;;;;;;6.29;67.02;99935.34;6235772;23;20008;-75
2022/01/07 12:03:39;;;;;;;5.65;0.73;;;;;;;6.22;68.17;99940.13;6236219;23;20043;-74
2022/01/07 12:06:17;;;;;;;3.47;0.90;;;;;;;6.28;69.13;99936.44;6236510;23;20000;-75
2022/01/07 12:21:28;;;;;;;2.92;0.75;;;;;;;6.31;68.08;99892.50;6232146;23;20019;-75
2022/01/07 12:24:39;;;;;;;3.63;0.82;;;;;;;6.40;68.49;99882.81;6205960;23;20012;-75
2022/01/07 12:27:06;;;;;;;1.98;0.73;;;;;;;6.50;67.80;99886.75;6152164;23;20028;-74
2022/01/07 12:29:40;;;;;;;7.55;1.40;;;;;;;6.51;67.73;99904.69;6195490;23;20009;-75